CheckWX is a tool to help pilots better visualize weather data.  It is not intended as a substitute for an official pre-flight weather briefing.

14:11:15 UTC

KIDI METAR
Indiana County / Jimmy Stewart Field / Airport
Indiana, Pennsylvania, USA
Current

16 mins ago

KIDI 291355Z AUTO 22009G15KT 10SM BKN080 OVC095 20/15 A2978 RMK A01
Observed
Mar-29 @ 13:55 UTC
Wind
  • 220° at 9 KTS
  • Gusting to 15 KTS
Visibility
10 SM
Flight Rules
VFR
Cloud Levels
  • Broken at 8,000' AGL
  • Overcast at 9,500' AGL
Temperature
20°C / 68°F
Dewpoint
15°C / 59°F
Humidity
73%
Altimeter
29.78" Hg
Pressure
1008.42 hPa
Previous

36 mins ago

KIDI 291335Z AUTO 17006G14KT 10SM FEW060 OVC080 19/15 A2980 RMK A01
Observed
Mar-29 @ 13:35 UTC
Wind
  • 170° at 6 KTS
  • Gusting to 14 KTS
Visibility
10 SM
Flight Rules
VFR
Cloud Levels
  • Few at 6,000' AGL
  • Overcast at 8,000' AGL
Temperature
19°C / 66°F
Dewpoint
15°C / 59°F
Humidity
78%
Altimeter
29.8" Hg
Pressure
1009.12 hPa
Previous

56 mins ago

KIDI 291315Z AUTO 17008KT 10SM BKN065 BKN075 OVC090 18/14 A2981 RMK A01
Observed
Mar-29 @ 13:15 UTC
Wind
  • 170° at 8 KTS
Visibility
10 SM
Flight Rules
VFR
Cloud Levels
  • Broken at 6,500' AGL
  • Broken at 7,500' AGL
  • Overcast at 9,000' AGL
Temperature
18°C / 64°F
Dewpoint
14°C / 57°F
Humidity
78%
Altimeter
29.81" Hg
Pressure
1009.52 hPa